Terminal Aerodrome Forecast
Issued by NWS

Home | Current Version | Previous Version | Text Only | Print | Product List | Glossary On
Versions: 1 2 3 4 5 6 7 8 9 10 11 12 13 14 15 16 17 18 19 20 21 22
000
FTUS43 KILX 092341
TAFBMI
TAF
KBMI 092341Z 1000/1024 04010KT P6SM SKC
     FM100500 VRB03KT P6SM SKC
     FM101000 VRB03KT 3SM BR SCT250
     FM101300 35004KT P6SM BKN250
     FM101500 34007KT P6SM BKN090
     FM101800 33008KT P6SM VCSH BKN050=

USA.gov is the U.S. government's official web portal to all federal, state and local government web resources and services.